Time;durP1;ratioP1;P1;durP2;ratioP2;P2;SDS_P1;SDS_P2;PMS_P1;PMS_P2;Temp;Humidity;BMP_temperature;BMP_pressure;BME280_temperature;BME280_humidity;BME280_pressure;Samples;Min_cycle;Max_cycle;Signal;HPM_P1;HPM_P2
2021/08/03 00:00:01;;;;;;;2.83;1.70;;;;;;;14.25;79.81;95708.35;1767646;81;21038;-60
2021/08/03 00:02:29;;;;;;;1.47;1.27;;;;;;;14.25;79.62;95708.35;1768010;81;21488;-60
2021/08/03 00:04:59;;;;;;;4.15;1.37;;;;;;;14.27;79.43;95706.98;1767710;81;21066;-60
2021/08/03 00:07:31;;;;;;;3.42;1.40;;;;;;;14.16;80.33;95701.13;1767755;81;21027;-59
2021/08/03 00:09:58;;;;;;;4.12;1.50;;;;;;;14.20;80.34;95706.30;1759741;81;21041;-59
2021/08/03 00:12:25;;;;;;;1.85;1.20;;;;;;;14.18;79.88;95698.84;1759264;81;21066;-60
2021/08/03 00:14:54;;;;;;;1.75;1.25;;;;;;;14.16;79.22;95694.49;1759356;81;21139;-60
2021/08/03 00:17:25;;;;;;;2.35;1.57;;;;;;;14.06;79.15;95694.80;1759022;81;21114;-60
2021/08/03 00:19:53;;;;;;;2.08;1.12;;;;;;;14.05;79.21;95697.02;1759800;81;21018;-60
2021/08/03 00:22:24;;;;;;;2.50;1.17;;;;;;;14.06;80.00;95700.53;1759556;81;21122;-61
2021/08/03 00:24:52;;;;;;;4.60;1.35;;;;;;;14.01;80.68;95699.38;1759437;81;21505;-59
2021/08/03 00:27:19;;;;;;;3.17;1.40;;;;;;;14.00;80.08;95694.97;1759714;81;20982;-60
2021/08/03 00:29:45;;;;;;;1.40;1.30;;;;;;;14.04;80.39;95697.09;1759302;81;21102;-59
2021/08/03 00:32:12;;;;;;;1.57;1.30;;;;;;;14.12;79.93;95696.85;1759263;81;21050;-60
2021/08/03 00:34:39;;;;;;;3.70;1.22;;;;;;;14.17;79.57;95697.58;1759666;81;21488;-59
2021/08/03 00:37:10;;;;;;;8.30;1.30;;;;;;;14.29;79.27;95696.73;1759326;81;21062;-60
2021/08/03 00:39:38;;;;;;;2.72;1.07;;;;;;;14.12;78.71;95699.50;1759661;81;21497;-60
2021/08/03 00:42:07;;;;;;;4.35;1.17;;;;;;;14.06;78.65;95692.14;1787164;80;20980;-59
2021/08/03 00:44:47;;;;;;;3.70;1.87;;;;;;;14.03;78.53;95695.33;1786916;80;21528;-60
2021/08/03 00:47:19;;;;;;;2.35;1.12;;;;;;;14.06;78.49;95694.80;1786474;80;21488;-60
2021/08/03 00:49:48;;;;;;;1.42;1.22;;;;;;;14.01;78.58;95692.74;1787298;80;20979;-59
2021/08/03 00:52:17;;;;;;;1.30;1.20;;;;;;;14.00;78.93;95695.43;1786959;80;20984;-60
2021/08/03 00:54:44;;;;;;;2.02;1.60;;;;;;;13.97;79.27;95703.48;1754652;80;21027;-59
2021/08/03 00:57:13;;;;;;;1.25;1.00;;;;;;;13.94;79.48;95699.61;1787295;80;21484;-60
2021/08/03 00:59:41;;;;;;;2.35;1.10;;;;;;;13.84;80.90;95695.89;1786906;80;21457;-59
2021/08/03 01:02:08;;;;;;;3.62;1.30;;;;;;;13.89;80.18;95697.55;1787064;80;21464;-59
2021/08/03 01:04:36;;;;;;;3.77;1.62;;;;;;;13.89;80.16;95698.88;1787275;80;21069;-60
2021/08/03 01:07:28;;;;;;;1.65;1.27;;;;;;;13.89;80.24;95705.05;1787182;80;21141;-60
2021/08/03 01:10:18;;;;;;;4.62;1.60;;;;;;;13.90;80.38;95703.25;1793328;80;21025;-60
2021/08/03 01:13:26;;;;;;;8.20;1.55;;;;;;;13.95;79.65;95701.33;1795457;80;21014;-59
2021/08/03 01:16:13;;;;;;;2.77;1.42;;;;;;;13.92;79.39;95700.11;1795566;80;21085;-59
2021/08/03 01:18:53;;;;;;;3.33;1.40;;;;;;;13.87;79.96;95693.61;1794742;80;20987;-60
2021/08/03 01:21:37;;;;;;;3.33;1.35;;;;;;;13.72;80.44;95701.55;1795613;80;21066;-59
2021/08/03 01:24:18;;;;;;;6.20;2.08;;;;;;;13.67;79.84;95698.63;1795419;80;21038;-59
2021/08/03 01:27:24;;;;;;;2.42;1.35;;;;;;;13.64;79.80;95703.11;1795417;80;21044;-59
2021/08/03 01:29:51;;;;;;;2.77;1.30;;;;;;;13.58;80.42;95699.75;1795458;80;21496;-59
2021/08/03 01:32:30;;;;;;;3.45;1.20;;;;;;;13.56;79.75;95697.63;1795374;80;20971;-59
2021/08/03 01:34:58;;;;;;;2.25;1.20;;;;;;;13.51;79.91;95695.56;1795534;80;21042;-59
2021/08/03 01:37:30;;;;;;;2.35;1.25;;;;;;;13.50;79.79;95705.73;1795460;80;21074;-59
2021/08/03 01:40:08;;;;;;;3.47;1.20;;;;;;;13.50;80.68;95697.78;1795289;80;21476;-59
2021/08/03 01:42:41;;;;;;;2.05;1.57;;;;;;;13.50;81.47;95690.69;1764748;80;21018;-60
2021/08/03 01:45:12;;;;;;;4.85;1.22;;;;;;;13.56;81.24;95702.47;1795566;80;21014;-60
2021/08/03 01:47:39;;;;;;;2.12;1.22;;;;;;;13.55;80.72;95700.70;1795270;80;20983;-59
2021/08/03 01:50:09;;;;;;;3.33;1.22;;;;;;;13.50;80.83;95693.34;1795636;80;21500;-59
2021/08/03 01:52:39;;;;;;;2.45;1.20;;;;;;;13.50;80.38;95694.67;1795492;80;20974;-59
2021/08/03 01:55:09;;;;;;;3.65;1.50;;;;;;;13.57;80.25;95702.00;1789876;80;20994;-59
2021/08/03 01:57:42;;;;;;;1.40;1.20;;;;;;;13.67;79.98;95690.68;1795460;80;21030;-59
2021/08/03 02:00:12;;;;;;;3.77;1.20;;;;;;;13.62;79.74;95692.99;1795254;80;21516;-59
2021/08/03 02:02:47;;;;;;;2.75;1.30;;;;;;;13.59;79.59;95690.44;1791930;80;21022;-60
2021/08/03 02:05:17;;;;;;;1.20;1.10;;;;;;;13.56;79.54;95702.47;1795479;80;21025;-60
2021/08/03 02:07:46;;;;;;;2.95;1.07;;;;;;;13.47;80.40;95698.73;1793498;80;21020;-60
2021/08/03 02:10:14;;;;;;;3.22;1.47;;;;;;;13.49;80.35;95705.33;1737860;81;21531;-60
2021/08/03 02:12:42;;;;;;;2.22;1.37;;;;;;;13.59;80.26;95705.48;1755936;82;21453;-59
2021/08/03 02:15:10;;;;;;;4.03;1.20;;;;;;;13.60;79.58;95707.20;1755973;81;20995;-60
2021/08/03 02:17:38;;;;;;;3.10;1.10;;;;;;;13.55;79.18;95714.42;1755605;81;21485;-60
2021/08/03 02:20:07;;;;;;;1.80;1.47;;;;;;;13.50;79.19;95713.69;1754207;82;21062;-60
2021/08/03 02:22:37;;;;;;;2.45;1.47;;;;;;;13.53;79.61;95717.14;1755600;82;21532;-59
2021/08/03 02:25:10;;;;;;;1.55;1.37;;;;;;;13.44;80.33;95719.17;1755213;82;21007;-60
2021/08/03 02:27:38;;;;;;;1.80;1.42;;;;;;;13.45;80.45;95715.59;1755908;82;21015;-60
2021/08/03 02:30:08;;;;;;;3.90;1.80;;;;;;;13.37;79.94;95721.97;1755696;82;21022;-60
2021/08/03 02:32:48;;;;;;;1.80;1.55;;;;;;;13.33;79.78;95724.74;1755751;81;21018;-59
2021/08/03 02:35:22;;;;;;;3.92;1.45;;;;;;;13.26;80.77;95724.03;1755884;81;21508;-60
2021/08/03 02:38:00;;;;;;;1.77;1.47;;;;;;;13.21;80.66;95715.33;1755769;81;21527;-59
2021/08/03 02:40:28;;;;;;;2.62;1.50;;;;;;;13.13;80.46;95721.30;1756048;81;20994;-59
2021/08/03 02:42:58;;;;;;;1.95;1.60;;;;;;;13.09;80.58;95723.61;1754576;82;21030;-59
2021/08/03 02:45:26;;;;;;;3.02;1.70;;;;;;;13.08;80.69;95731.12;1755859;81;20971;-59
2021/08/03 02:47:57;;;;;;;3.65;1.50;;;;;;;13.06;80.99;95734.28;1750978;82;21509;-59
2021/08/03 02:50:26;;;;;;;3.00;1.60;;;;;;;13.04;81.04;95737.42;1755880;81;20991;-59
2021/08/03 02:52:56;;;;;;;2.47;2.02;;;;;;;13.02;81.47;95733.94;1755839;81;21523;-60
2021/08/03 02:55:28;;;;;;;2.87;1.90;;;;;;;13.06;81.62;95744.88;1755935;81;21066;-59
2021/08/03 02:58:03;;;;;;;2.00;1.60;;;;;;;13.10;81.60;95742.13;1755499;81;21046;-59
2021/08/03 03:00:34;;;;;;;3.20;1.40;;;;;;;13.06;81.61;95745.75;1755633;82;21066;-59
2021/08/03 03:03:09;;;;;;;3.90;2.00;;;;;;;13.09;80.89;95743.47;1756078;81;21026;-59
2021/08/03 03:05:39;;;;;;;6.92;1.62;;;;;;;13.09;80.51;95747.45;1755469;81;21523;-59
2021/08/03 03:08:10;;;;;;;3.75;1.42;;;;;;;13.10;80.23;95750.06;1755808;81;21062;-59
2021/08/03 03:10:50;;;;;;;2.87;1.75;;;;;;;13.09;80.24;95750.09;1761352;81;20995;-59
2021/08/03 03:13:28;;;;;;;4.30;1.30;;;;;;;13.09;80.24;95754.07;1762740;81;20998;-59
2021/08/03 03:15:57;;;;;;;1.73;1.30;;;;;;;13.08;80.49;95750.98;1762503;81;21552;-59
2021/08/03 03:18:24;;;;;;;1.42;1.32;;;;;;;13.07;80.35;95749.26;1762277;81;21440;-59
2021/08/03 03:20:52;;;;;;;3.52;1.92;;;;;;;13.04;80.13;95750.67;1762786;81;21050;-59
2021/08/03 03:23:23;;;;;;;5.40;1.40;;;;;;;13.03;80.45;95756.43;1762996;81;21038;-59
2021/08/03 03:25:52;;;;;;;4.60;1.60;;;;;;;13.00;81.87;95760.45;1762113;81;21058;-59
2021/08/03 03:28:25;;;;;;;8.03;1.80;;;;;;;13.07;81.36;95764.69;1762528;81;21018;-59
2021/08/03 03:30:54;;;;;;;2.20;1.50;;;;;;;13.16;81.05;95761.81;1762549;81;21038;-59
2021/08/03 03:33:23;;;;;;;5.83;1.50;;;;;;;13.16;80.32;95768.91;1762343;81;21437;-59
2021/08/03 03:35:55;;;;;;;2.92;1.45;;;;;;;13.18;80.42;95769.28;1762489;81;21026;-59
2021/08/03 03:38:26;;;;;;;2.22;1.55;;;;;;;13.24;79.99;95766.91;1762648;81;21098;-58
2021/08/03 03:40:53;;;;;;;4.15;1.70;;;;;;;13.29;79.98;95771.67;1762529;81;21555;-59
2021/08/03 03:43:21;;;;;;;2.95;1.60;;;;;;;13.31;79.85;95775.16;1762445;81;21054;-59
2021/08/03 03:46:05;;;;;;;4.15;1.60;;;;;;;13.36;80.04;95770.60;1762223;81;21034;-61
2021/08/03 03:48:41;;;;;;;4.58;1.47;;;;;;;13.39;80.15;95775.81;1754300;81;21029;-59
2021/08/03 03:51:13;;;;;;;3.12;1.72;;;;;;;13.30;80.16;95777.38;1762188;81;21057;-59
2021/08/03 03:53:53;;;;;;;5.08;1.67;;;;;;;13.16;79.83;95776.84;1762554;81;21082;-59
2021/08/03 03:56:23;;;;;;;2.72;1.70;;;;;;;13.13;80.44;95787.07;1762609;81;21457;-59
2021/08/03 03:58:54;;;;;;;2.10;1.60;;;;;;;13.24;80.88;95796.06;1762541;81;21476;-59
2021/08/03 04:01:25;;;;;;;3.90;1.90;;;;;;;13.35;80.92;95792.69;1739305;81;21049;-59
2021/08/03 04:03:55;;;;;;;2.15;1.60;;;;;;;13.51;80.87;95789.66;1762383;81;21087;-59
2021/08/03 04:06:22;;;;;;;3.77;2.00;;;;;;;13.70;80.65;95795.32;1762527;81;21006;-60
2021/08/03 04:08:50;;;;;;;11.75;2.00;;;;;;;13.80;80.05;95792.83;1762174;81;21493;-60
2021/08/03 04:11:17;;;;;;;3.62;1.98;;;;;;;13.83;79.99;95794.05;1766102;81;21069;-60
2021/08/03 04:13:49;;;;;;;3.10;1.80;;;;;;;13.87;80.39;95794.40;1765842;81;21034;-60
2021/08/03 04:16:16;;;;;;;3.85;1.80;;;;;;;13.94;80.42;95791.13;1736211;81;21006;-59
2021/08/03 04:18:43;;;;;;;4.60;2.10;;;;;;;13.95;80.45;95794.17;1766134;81;21022;-60
2021/08/03 04:21:10;;;;;;;4.28;1.90;;;;;;;13.99;80.42;95799.36;1766200;81;21038;-59
2021/08/03 04:23:37;;;;;;;6.20;1.98;;;;;;;14.06;80.28;95803.58;1766571;81;21038;-60
2021/08/03 04:26:04;;;;;;;2.83;2.02;;;;;;;14.14;80.32;95799.38;1766520;81;21021;-59
2021/08/03 04:28:31;;;;;;;6.95;3.10;;;;;;;14.22;80.10;95804.45;1766095;81;21006;-59
2021/08/03 04:30:59;;;;;;;4.47;1.90;;;;;;;14.29;80.06;95799.38;1761666;81;21022;-60
2021/08/03 04:33:27;;;;;;;3.22;2.02;;;;;;;14.35;80.25;95789.89;1766313;81;21030;-59
2021/08/03 04:35:53;;;;;;;4.92;2.40;;;;;;;14.42;80.26;95798.55;1766296;81;21030;-59
2021/08/03 04:38:21;;;;;;;7.62;2.15;;;;;;;14.45;80.34;95800.64;1766305;81;21503;-59
2021/08/03 04:40:47;;;;;;;9.95;2.33;;;;;;;14.50;80.34;95794.73;1766289;81;21487;-59
2021/08/03 04:43:14;;;;;;;3.87;2.40;;;;;;;14.57;80.06;95799.44;1766292;81;21022;-59
2021/08/03 04:45:40;;;;;;;4.92;2.30;;;;;;;14.66;79.91;95795.15;1766356;81;21480;-59
2021/08/03 04:48:07;;;;;;;8.70;3.05;;;;;;;14.76;79.81;95800.19;1765583;81;21066;-60
2021/08/03 04:50:33;;;;;;;4.85;1.90;;;;;;;14.85;79.59;95796.78;1766258;81;21017;-59
2021/08/03 04:53:00;;;;;;;3.52;2.10;;;;;;;14.98;79.83;95797.72;1766086;81;21013;-59
2021/08/03 04:55:27;;;;;;;6.47;1.90;;;;;;;15.04;79.68;95792.19;1766079;81;20979;-59
2021/08/03 04:57:53;;;;;;;3.85;1.87;;;;;;;15.15;79.83;95802.02;1766189;81;21034;-59
2021/08/03 05:00:20;;;;;;;3.80;1.87;;;;;;;15.30;79.70;95798.84;1766131;81;20983;-59
2021/08/03 05:02:47;;;;;;;5.05;1.95;;;;;;;15.48;79.56;95798.67;1766341;81;21452;-60
2021/08/03 05:05:13;;;;;;;7.35;2.10;;;;;;;15.65;79.04;95798.09;1766066;81;21090;-59
2021/08/03 05:07:40;;;;;;;6.45;2.05;;;;;;;15.75;78.35;95802.20;1766471;81;20998;-59
2021/08/03 05:10:10;;;;;;;2.98;1.95;;;;;;;15.83;78.51;95795.73;1766168;81;21058;-59
2021/08/03 05:12:38;;;;;;;5.00;2.00;;;;;;;15.91;78.37;95798.52;1766346;81;21026;-59
2021/08/03 05:15:07;;;;;;;2.58;1.60;;;;;;;16.08;78.34;95798.38;1766462;81;21480;-59
2021/08/03 05:17:35;;;;;;;3.60;1.82;;;;;;;16.28;78.22;95799.83;1766334;81;21093;-60
2021/08/03 05:20:02;;;;;;;4.45;1.92;;;;;;;16.46;77.88;95797.39;1766350;81;21036;-59
2021/08/03 05:22:30;;;;;;;5.95;1.60;;;;;;;16.62;77.54;95793.19;1766099;81;21019;-60
2021/08/03 05:24:58;;;;;;;6.67;1.95;;;;;;;16.80;77.14;95791.16;1766318;81;20990;-59
2021/08/03 05:27:26;;;;;;;5.03;2.37;;;;;;;16.94;76.25;95789.28;1766572;81;20994;-60
2021/08/03 05:29:53;;;;;;;2.65;2.05;;;;;;;17.03;75.91;95791.59;1766388;81;20994;-60
2021/08/03 05:32:20;;;;;;;6.05;2.37;;;;;;;17.17;76.06;95788.81;1766195;81;20963;-60
2021/08/03 05:34:46;;;;;;;2.33;2.10;;;;;;;17.23;75.41;95784.55;1766306;81;21010;-60
2021/08/03 05:37:13;;;;;;;3.15;2.30;;;;;;;17.26;74.97;95786.64;1766374;81;21034;-60
2021/08/03 05:39:39;;;;;;;8.70;2.58;;;;;;;17.30;74.89;95787.36;1766393;81;21002;-60
2021/08/03 05:42:06;;;;;;;3.80;2.02;;;;;;;17.34;75.13;95786.31;1766423;81;21018;-60
2021/08/03 05:44:33;;;;;;;5.60;2.30;;;;;;;17.47;75.64;95781.33;1766385;81;21002;-59
2021/08/03 05:47:01;;;;;;;3.60;2.12;;;;;;;17.59;75.31;95790.14;1766241;81;21453;-60
2021/08/03 05:49:28;;;;;;;5.97;2.42;;;;;;;17.68;75.16;95784.38;1766308;81;21014;-60
2021/08/03 05:52:00;;;;;;;6.22;2.35;;;;;;;17.83;74.80;95783.36;1766041;81;21053;-60
2021/08/03 05:54:27;;;;;;;3.87;2.50;;;;;;;17.90;74.24;95779.01;1766341;81;20987;-60
2021/08/03 05:56:54;;;;;;;2.58;2.25;;;;;;;17.98;74.40;95778.67;1766412;81;21065;-60
2021/08/03 05:59:20;;;;;;;5.55;2.45;;;;;;;18.05;74.01;95770.78;1766110;81;21098;-59
2021/08/03 06:01:47;;;;;;;3.80;2.37;;;;;;;18.23;73.37;95774.42;1766196;81;21026;-60
2021/08/03 06:04:14;;;;;;;4.33;2.20;;;;;;;18.23;73.37;95774.42;1765914;81;21098;-59
2021/08/03 06:06:43;;;;;;;6.55;2.10;;;;;;;18.36;73.43;95780.06;1766242;81;21089;-60
2021/08/03 06:09:14;;;;;;;6.90;2.35;;;;;;;18.51;72.94;95778.48;1766314;81;20987;-60
2021/08/03 06:11:50;;;;;;;4.95;2.35;;;;;;;18.51;72.94;95778.48;1766360;81;21078;-60
2021/08/03 06:14:37;;;;;;;6.55;2.65;;;;;;;18.66;73.13;95782.24;1766117;81;21066;-59
2021/08/03 06:17:10;;;;;;;6.60;2.42;;;;;;;18.85;73.10;95791.60;1766203;81;21026;-59
2021/08/03 06:19:49;;;;;;;7.30;2.62;;;;;;;18.98;72.09;95781.59;1766270;81;21042;-59
2021/08/03 06:22:18;;;;;;;11.33;2.80;;;;;;;19.13;71.70;95777.78;1765859;81;21038;-59
2021/08/03 06:24:49;;;;;;;8.03;2.55;;;;;;;19.30;71.92;95783.61;1766420;81;21021;-59
2021/08/03 06:27:19;;;;;;;7.10;2.22;;;;;;;19.43;71.40;95790.10;1766101;81;21010;-60
2021/08/03 06:29:47;;;;;;;12.55;2.47;;;;;;;19.60;71.20;95783.87;1766410;81;21030;-59
2021/08/03 06:32:14;;;;;;;8.45;2.22;;;;;;;19.80;71.26;95789.58;1766269;81;21065;-60
2021/08/03 06:34:44;;;;;;;8.95;1.95;;;;;;;19.94;69.77;95791.06;1766090;81;21033;-59
2021/08/03 06:37:12;;;;;;;8.63;2.50;;;;;;;20.04;69.82;95796.33;1766375;81;21003;-59
2021/08/03 06:39:40;;;;;;;10.20;2.72;;;;;;;20.18;69.82;95792.91;1766326;81;21053;-60
2021/08/03 06:42:27;;;;;;;7.33;3.05;;;;;;;20.34;69.21;95795.65;1766252;81;21010;-60
2021/08/03 06:45:04;;;;;;;8.63;2.58;;;;;;;20.52;69.16;95789.77;1765902;81;21578;-59
2021/08/03 06:47:48;;;;;;;10.10;3.42;;;;;;;20.68;68.85;95782.62;1766429;81;21002;-59
2021/08/03 06:50:19;;;;;;;7.53;3.40;;;;;;;20.86;68.34;95792.80;1765981;81;21098;-59
2021/08/03 06:52:48;;;;;;;9.43;2.98;;;;;;;20.98;67.94;95782.34;1766525;81;21046;-59
2021/08/03 06:55:18;;;;;;;6.83;2.75;;;;;;;21.11;67.78;95781.54;1766351;81;21037;-60
2021/08/03 06:57:51;;;;;;;2.47;2.10;;;;;;;21.26;67.05;95777.11;1766551;81;21065;-59
2021/08/03 07:00:19;;;;;;;;;;;;;;;21.35;65.17;95779.27;1768836;81;21031;-59
2021/08/03 07:02:48;;;;;;;4.65;1.95;;;;;;;21.45;63.71;95777.44;1766301;81;20106;-59
2021/08/03 07:05:18;;;;;;;5.95;2.20;;;;;;;21.53;62.68;95776.02;1766279;81;21026;-59
2021/08/03 07:07:45;;;;;;;4.05;2.37;;;;;;;21.64;63.67;95783.91;1766356;81;20993;-59
2021/08/03 07:10:14;;;;;;;3.85;1.90;;;;;;;21.75;63.71;95782.81;1765391;81;21033;-59
2021/08/03 07:12:44;;;;;;;2.00;1.80;;;;;;;21.81;61.84;95782.43;1762247;81;21033;-59
2021/08/03 07:15:13;;;;;;;2.60;2.00;;;;;;;21.89;61.14;95780.63;1762629;81;21500;-60
2021/08/03 07:17:44;;;;;;;2.37;1.80;;;;;;;22.02;61.38;95781.59;1762361;81;21029;-60
2021/08/03 07:20:11;;;;;;;3.83;1.87;;;;;;;22.14;61.33;95778.66;1762419;81;21009;-60
2021/08/03 07:22:41;;;;;;;3.92;2.00;;;;;;;22.22;60.11;95776.38;1762653;81;21491;-60
2021/08/03 07:25:10;;;;;;;1.80;1.70;;;;;;;22.31;60.27;95774.48;1762196;81;21054;-60
2021/08/03 07:27:37;;;;;;;2.50;1.80;;;;;;;22.33;54.56;95773.05;1762748;81;20963;-60
2021/08/03 07:30:06;;;;;;;5.10;1.40;;;;;;;22.42;57.55;95773.31;1762243;81;21535;-60
2021/08/03 07:32:35;;;;;;;3.92;1.80;;;;;;;22.54;57.53;95763.63;1762385;81;21026;-59
2021/08/03 07:35:05;;;;;;;5.40;1.72;;;;;;;22.63;57.53;95768.91;1761994;81;21010;-60
2021/08/03 07:37:34;;;;;;;1.60;1.40;;;;;;;22.68;55.81;95764.11;1762373;81;21154;-59
2021/08/03 07:40:01;;;;;;;4.10;2.05;;;;;;;22.75;55.97;95769.94;1762603;81;21448;-59
2021/08/03 07:42:27;;;;;;;9.00;1.75;;;;;;;22.84;56.08;95772.91;1762509;81;21093;-60
2021/08/03 07:44:54;;;;;;;1.47;1.37;;;;;;;22.90;55.49;95759.04;1762372;81;21097;-59
2021/08/03 07:47:20;;;;;;;1.70;1.60;;;;;;;22.98;54.55;95773.41;1762225;81;21102;-60
2021/08/03 07:49:48;;;;;;;1.35;1.27;;;;;;;23.05;52.76;95773.84;1762204;81;21027;-59
2021/08/03 07:52:14;;;;;;;1.52;1.40;;;;;;;23.12;52.80;95776.53;1762237;81;21027;-59
2021/08/03 07:54:41;;;;;;;3.42;1.47;;;;;;;23.21;53.26;95771.01;1762464;81;21030;-59
2021/08/03 07:57:08;;;;;;;2.33;1.50;;;;;;;23.28;52.01;95772.34;1762165;81;21512;-60
2021/08/03 07:59:34;;;;;;;4.08;1.50;;;;;;;23.34;52.20;95770.59;1762224;81;21018;-60
2021/08/03 08:02:01;;;;;;;1.82;1.35;;;;;;;23.44;53.17;95769.52;1762221;81;21090;-60
2021/08/03 08:04:27;;;;;;;3.17;1.80;;;;;;;23.47;51.96;95766.61;1762486;81;20967;-60
2021/08/03 08:06:54;;;;;;;2.42;1.35;;;;;;;23.54;51.13;95768.78;1762094;81;21026;-60
2021/08/03 08:09:20;;;;;;;7.40;1.30;;;;;;;23.61;51.07;95766.55;1762654;81;20967;-59
2021/08/03 08:11:47;;;;;;;1.62;1.45;;;;;;;23.70;50.63;95769.09;1762280;81;21146;-60
2021/08/03 08:14:14;;;;;;;2.98;1.40;;;;;;;23.81;51.48;95776.47;1728533;81;20990;-60
2021/08/03 08:16:41;;;;;;;2.67;1.70;;;;;;;23.88;49.96;95783.17;1762176;81;21593;-60
2021/08/03 08:19:07;;;;;;;3.58;1.65;;;;;;;23.88;47.13;95784.02;1762164;81;21066;-59
2021/08/03 08:21:34;;;;;;;2.10;1.50;;;;;;;23.91;48.70;95792.38;1728453;81;21492;-60
2021/08/03 08:24:02;;;;;;;1.82;1.50;;;;;;;24.01;50.00;95789.92;1762441;81;21014;-60
2021/08/03 08:26:29;;;;;;;2.02;1.70;;;;;;;24.11;49.03;95804.00;1762463;81;21090;-61
2021/08/03 08:28:57;;;;;;;2.00;1.50;;;;;;;24.16;47.07;95799.64;1762477;81;21520;-60
2021/08/03 08:31:23;;;;;;;3.65;2.17;;;;;;;24.26;47.66;95803.42;1762581;81;21049;-60
2021/08/03 08:33:51;;;;;;;1.70;1.60;;;;;;;24.37;48.69;95802.20;1762445;81;21074;-60
2021/08/03 08:36:18;;;;;;;2.47;1.90;;;;;;;24.47;48.11;95799.77;1762430;81;21046;-60
2021/08/03 08:38:44;;;;;;;3.02;1.60;;;;;;;24.50;47.20;95799.55;1762462;81;21058;-60
2021/08/03 08:41:15;;;;;;;4.30;2.40;;;;;;;24.54;48.91;95802.37;1762254;81;21070;-60
2021/08/03 08:43:42;;;;;;;2.65;1.70;;;;;;;24.58;48.99;95806.59;1762777;81;21515;-60
2021/08/03 08:46:09;;;;;;;1.70;1.60;;;;;;;24.68;47.68;95801.91;1762584;81;21058;-60
2021/08/03 08:48:38;;;;;;;2.42;1.45;;;;;;;24.71;45.61;95800.33;1762465;81;21476;-60
2021/08/03 08:51:06;;;;;;;1.50;1.40;;;;;;;24.75;46.48;95797.80;1762261;81;21026;-59
2021/08/03 08:53:34;;;;;;;1.57;1.47;;;;;;;24.89;44.68;95791.39;1762707;81;21066;-59
2021/08/03 08:56:04;;;;;;;2.05;1.85;;;;;;;24.98;46.41;95779.45;1762337;81;21092;-60
2021/08/03 08:58:37;;;;;;;1.50;1.40;;;;;;;25.14;46.08;95768.88;1762382;81;21002;-60
2021/08/03 09:01:04;;;;;;;3.45;1.30;;;;;;;25.26;47.52;95751.80;1762709;81;21037;-60
2021/08/03 09:03:31;;;;;;;1.92;1.30;;;;;;;25.36;46.13;95755.53;1762211;81;21559;-60
2021/08/03 09:06:05;;;;;;;1.27;1.25;;;;;;;25.41;44.08;95753.84;1762233;81;21063;-60
2021/08/03 09:08:40;;;;;;;1.45;1.32;;;;;;;25.43;44.20;95748.70;1762676;81;21006;-60
2021/08/03 09:11:16;;;;;;;1.40;1.30;;;;;;;25.40;41.87;95758.39;1763439;81;21030;-60
2021/08/03 09:14:01;;;;;;;2.95;1.62;;;;;;;25.41;44.31;95758.75;1766408;81;21025;-59
2021/08/03 09:16:48;;;;;;;1.47;1.37;;;;;;;25.47;43.86;95762.33;1766379;81;21006;-60
2021/08/03 09:19:37;;;;;;;2.62;1.72;;;;;;;25.55;43.19;95767.19;1766353;81;21105;-60
2021/08/03 09:22:28;;;;;;;1.95;1.35;;;;;;;25.70;43.93;95762.43;1724668;81;21034;-60
2021/08/03 09:25:18;;;;;;;2.47;1.50;;;;;;;25.67;43.23;95765.38;1766313;81;21090;-60
2021/08/03 09:27:48;;;;;;;3.77;1.50;;;;;;;25.79;43.35;95767.14;1766414;81;20966;-60
2021/08/03 09:30:26;;;;;;;1.67;1.40;;;;;;;25.93;43.51;95762.55;1766140;81;21125;-60
2021/08/03 09:32:53;;;;;;;2.80;1.62;;;;;;;26.08;43.36;95759.54;1766431;81;20998;-59
2021/08/03 09:35:23;;;;;;;4.42;1.70;;;;;;;26.26;43.74;95763.14;1765974;81;21565;-60
2021/08/03 09:37:52;;;;;;;3.37;1.50;;;;;;;26.34;42.42;95754.78;1766348;81;21488;-59
2021/08/03 09:40:32;;;;;;;2.00;1.72;;;;;;;26.44;42.25;95752.71;1766419;81;21069;-60
2021/08/03 09:43:12;;;;;;;1.87;1.42;;;;;;;26.55;41.55;95752.73;1736425;81;21022;-60
2021/08/03 09:45:50;;;;;;;1.77;1.60;;;;;;;26.69;42.26;95744.88;1766068;81;21026;-60
2021/08/03 09:48:20;;;;;;;3.87;2.20;;;;;;;26.57;39.55;95749.92;1766229;81;21057;-60
2021/08/03 09:51:10;;;;;;;2.42;2.02;;;;;;;26.47;40.35;95749.75;1765978;81;21134;-61
2021/08/03 09:53:44;;;;;;;5.62;2.08;;;;;;;26.45;39.76;95746.30;1766549;81;20986;-60
2021/08/03 09:56:18;;;;;;;2.70;1.65;;;;;;;26.42;39.40;95734.38;1736458;81;21045;-60
2021/08/03 09:59:03;;;;;;;3.17;1.90;;;;;;;26.54;40.51;95740.20;1766336;81;20974;-60
2021/08/03 10:01:35;;;;;;;1.80;1.70;;;;;;;26.53;40.22;95738.00;1766380;81;21082;-60
2021/08/03 10:04:05;;;;;;;2.72;1.50;;;;;;;26.23;40.61;95738.55;1766331;81;21031;-60
2021/08/03 10:06:35;;;;;;;2.22;1.30;;;;;;;26.22;41.01;95742.72;1766301;81;20978;-60
2021/08/03 10:09:04;;;;;;;1.72;1.22;;;;;;;26.21;39.10;95743.71;1766379;81;20994;-60
2021/08/03 10:11:31;;;;;;;2.30;1.52;;;;;;;26.33;41.09;95750.83;1766261;81;21114;-60
2021/08/03 10:13:58;;;;;;;2.98;1.87;;;;;;;26.50;41.35;95748.16;1766005;81;21006;-61
2021/08/03 10:16:26;;;;;;;1.67;1.40;;;;;;;26.67;38.75;95754.97;1766048;81;21026;-60
2021/08/03 10:19:00;;;;;;;2.58;1.62;;;;;;;26.81;39.93;95753.34;1736313;81;21018;-60
2021/08/03 10:21:41;;;;;;;2.30;1.42;;;;;;;26.94;40.74;95754.59;1766275;81;21002;-60
2021/08/03 10:24:25;;;;;;;3.50;1.87;;;;;;;26.94;39.88;95757.30;1764418;81;21098;-60
2021/08/03 10:27:08;;;;;;;3.72;1.55;;;;;;;27.10;40.69;95763.67;1766528;81;21508;-60
2021/08/03 10:29:48;;;;;;;1.70;1.55;;;;;;;27.21;39.13;95761.45;1766518;81;21066;-60
2021/08/03 10:32:46;;;;;;;1.98;1.80;;;;;;;27.02;37.71;95763.44;1766283;81;21081;-60
2021/08/03 10:35:16;;;;;;;1.82;1.60;;;;;;;26.54;39.30;95757.30;1766327;81;21050;-61
2021/08/03 10:38:00;;;;;;;2.00;1.62;;;;;;;26.06;39.55;95749.33;1766346;81;21014;-60
2021/08/03 10:40:56;;;;;;;2.52;1.65;;;;;;;25.97;40.67;95747.33;1746836;81;21038;-60
2021/08/03 10:43:28;;;;;;;2.37;1.50;;;;;;;26.23;40.97;95749.37;1766327;81;21066;-59
2021/08/03 10:46:15;;;;;;;3.83;1.70;;;;;;;26.28;40.12;95744.45;1766167;81;21094;-60
2021/08/03 10:48:43;;;;;;;2.62;1.60;;;;;;;26.57;40.60;95744.52;1766401;81;21041;-60
2021/08/03 10:51:19;;;;;;;3.67;1.95;;;;;;;26.75;40.94;95747.94;1766116;81;21086;-60
2021/08/03 10:54:02;;;;;;;3.00;1.50;;;;;;;26.73;40.96;95745.84;1766362;81;21021;-59
2021/08/03 10:56:49;;;;;;;6.47;1.80;;;;;;;26.55;40.19;95734.65;1766468;81;21464;-60
2021/08/03 10:59:35;;;;;;;5.87;1.70;;;;;;;26.30;41.53;95738.91;1766326;81;21018;-60
2021/08/03 11:02:08;;;;;;;3.75;1.65;;;;;;;26.03;42.61;95731.11;1766302;81;21022;-60
2021/08/03 11:04:49;;;;;;;3.42;1.60;;;;;;;25.92;41.19;95732.45;1766335;81;21584;-60
2021/08/03 11:07:36;;;;;;;4.15;1.95;;;;;;;25.90;40.70;95736.61;1766165;81;21061;-60
2021/08/03 11:10:21;;;;;;;1.77;1.67;;;;;;;26.18;41.21;95739.38;1766305;81;21021;-60
2021/08/03 11:12:53;;;;;;;6.12;1.87;;;;;;;26.27;40.36;95737.80;1763354;81;21033;-60
2021/08/03 11:15:33;;;;;;;4.03;2.13;;;;;;;26.55;41.66;95733.30;1762567;81;21015;-60
2021/08/03 11:18:08;;;;;;;2.35;1.90;;;;;;;26.82;41.41;95722.59;1762376;81;21046;-60
2021/08/03 11:20:46;;;;;;;2.95;1.90;;;;;;;27.12;41.57;95721.08;1762476;81;21034;-60
2021/08/03 11:23:17;;;;;;;5.42;1.55;;;;;;;27.40;39.49;95699.34;1762290;81;21089;-60
2021/08/03 11:25:47;;;;;;;3.83;1.87;;;;;;;27.56;37.77;95704.33;1762553;81;21540;-60
2021/08/03 11:28:20;;;;;;;1.95;1.85;;;;;;;27.27;38.37;95702.23;1762571;81;21481;-60
2021/08/03 11:30:50;;;;;;;3.95;2.00;;;;;;;27.21;39.23;95710.84;1762458;81;21026;-60
2021/08/03 11:33:20;;;;;;;3.37;1.72;;;;;;;27.18;39.86;95696.20;1762613;81;21022;-60
2021/08/03 11:35:48;;;;;;;1.70;1.60;;;;;;;27.44;38.76;95706.70;1762335;81;20979;-60
2021/08/03 11:38:20;;;;;;;2.50;1.52;;;;;;;27.70;41.14;95707.23;1762152;81;21042;-61
2021/08/03 11:40:46;;;;;;;2.67;1.55;;;;;;;28.04;38.63;95700.64;1762488;81;21025;-60
2021/08/03 11:43:13;;;;;;;3.98;1.72;;;;;;;28.39;40.37;95699.41;1762332;81;20999;-60
2021/08/03 11:45:40;;;;;;;3.52;1.55;;;;;;;28.51;37.84;95707.52;1762322;81;21086;-60
2021/08/03 11:48:22;;;;;;;1.80;1.70;;;;;;;28.59;36.25;95705.83;1762610;81;21023;-60
2021/08/03 11:50:49;;;;;;;1.65;1.55;;;;;;;28.75;36.63;95700.38;1762408;81;21051;-60
2021/08/03 11:53:19;;;;;;;5.65;1.95;;;;;;;28.87;41.57;95706.08;1762512;81;21487;-60